createdAt,value
2024-02-26T05:00:50.886Z,2.83
2024-02-26T05:03:23.104Z,3.50
2024-02-26T05:05:55.385Z,3.60
2024-02-26T05:08:27.534Z,2.80
2024-02-26T05:10:59.612Z,7.80
2024-02-26T05:13:31.761Z,4.90
2024-02-26T05:16:05.616Z,2.37
2024-02-26T05:18:37.814Z,2.70
2024-02-26T05:21:10.257Z,5.07
2024-02-26T05:23:42.377Z,2.10
2024-02-26T05:26:20.598Z,2.77
2024-02-26T05:28:52.697Z,3.37
2024-02-26T05:31:26.116Z,6.73
2024-02-26T05:33:58.354Z,3.73
2024-02-26T05:36:30.626Z,5.00
2024-02-26T05:39:02.806Z,3.80
2024-02-26T05:41:34.988Z,4.13
2024-02-26T05:44:07.066Z,2.77
2024-02-26T05:46:40.486Z,3.73
2024-02-26T05:49:12.616Z,4.33
2024-02-26T05:51:44.777Z,3.10
2024-02-26T05:54:16.883Z,3.17
2024-02-26T05:56:48.999Z,6.03
2024-02-26T05:59:21.154Z,2.43
2024-02-26T06:01:54.648Z,5.90
2024-02-26T06:04:26.770Z,4.53
2024-02-26T06:06:58.949Z,5.70
2024-02-26T06:09:31.180Z,4.77
2024-02-26T06:12:03.357Z,4.03
2024-02-26T06:14:35.474Z,5.53
2024-02-26T06:17:08.966Z,4.07
2024-02-26T06:19:41.205Z,3.63
2024-02-26T06:22:13.358Z,4.87
2024-02-26T06:24:45.170Z,3.87
2024-02-26T06:27:17.028Z,6.10
2024-02-26T06:29:48.960Z,4.77
2024-02-26T06:32:22.065Z,4.67
2024-02-26T06:34:53.956Z,4.10
2024-02-26T06:37:25.809Z,6.00
2024-02-26T06:39:57.652Z,5.55
2024-02-26T06:42:29.425Z,4.77
2024-02-26T06:45:01.391Z,7.07
2024-02-26T06:47:34.626Z,6.40
2024-02-26T06:50:07.038Z,7.40
2024-02-26T06:52:38.843Z,6.50
2024-02-26T06:55:10.579Z,4.27
2024-02-26T06:57:42.482Z,6.00
2024-02-26T07:00:15.461Z,4.40
2024-02-26T07:02:48.933Z,3.77
2024-02-26T07:05:20.750Z,4.57
2024-02-26T07:07:52.465Z,4.50
2024-02-26T07:10:24.258Z,5.07
2024-02-26T07:12:56.020Z,4.27
2024-02-26T07:15:28.184Z,4.27
2024-02-26T07:18:01.471Z,4.50
2024-02-26T07:20:33.334Z,4.93
2024-02-26T07:23:05.303Z,5.60
2024-02-26T07:25:37.056Z,6.17
2024-02-26T07:28:09.169Z,6.00
2024-02-26T07:30:40.914Z,5.90
2024-02-26T07:33:14.168Z,5.00
2024-02-26T07:35:46.139Z,6.83
2024-02-26T07:38:27.538Z,4.80
2024-02-26T07:41:04.389Z,4.87
2024-02-26T07:43:36.133Z,3.83
2024-02-26T07:46:07.945Z,4.70
2024-02-26T07:48:41.254Z,4.80
2024-02-26T07:51:13.726Z,5.17
2024-02-26T07:53:45.604Z,4.93
2024-02-26T07:56:17.393Z,5.13
2024-02-26T07:58:49.142Z,4.53
2024-02-26T08:01:21.019Z,4.97
2024-02-26T08:03:54.359Z,3.87
2024-02-26T08:06:26.337Z,6.10
2024-02-26T08:08:58.210Z,4.67
2024-02-26T08:11:30.082Z,4.67
2024-02-26T08:14:01.965Z,7.73
2024-02-26T08:16:35.612Z,5.13
2024-02-26T08:19:10.348Z,5.67
2024-02-26T08:21:42.447Z,4.87
2024-02-26T08:24:14.225Z,6.17
2024-02-26T08:26:46.018Z,6.37
2024-02-26T08:29:17.787Z,5.97
2024-02-26T08:31:49.520Z,3.57
2024-02-26T08:34:22.731Z,4.07
2024-02-26T08:36:54.569Z,7.00
2024-02-26T08:39:26.333Z,3.63
2024-02-26T08:41:58.139Z,3.50
2024-02-26T08:44:29.895Z,3.97
2024-02-26T08:47:01.633Z,4.70
2024-02-26T08:49:34.797Z,4.33
2024-02-26T08:52:06.945Z,3.67
2024-02-26T08:54:38.793Z,4.37
2024-02-26T08:57:10.767Z,5.47
2024-02-26T08:59:42.563Z,6.17
2024-02-26T09:02:14.440Z,8.90
2024-02-26T09:04:47.589Z,4.47
2024-02-26T09:07:19.644Z,5.13
2024-02-26T09:09:51.465Z,5.03
2024-02-26T09:12:23.361Z,5.70
2024-02-26T09:14:55.182Z,3.97
2024-02-26T09:17:27.011Z,5.93
2024-02-26T09:20:00.154Z,3.83
2024-02-26T09:22:31.893Z,8.20
2024-02-26T09:25:04.028Z,4.83
2024-02-26T09:27:35.834Z,8.13
2024-02-26T09:30:08.594Z,5.37
2024-02-26T09:32:40.473Z,4.60
2024-02-26T09:35:13.672Z,5.80
2024-02-26T09:37:45.498Z,4.87
2024-02-26T09:40:17.419Z,4.23
2024-02-26T09:42:49.147Z,6.03
2024-02-26T09:45:21.639Z,6.67
2024-02-26T09:47:53.588Z,4.97
2024-02-26T09:50:27.107Z,6.33
2024-02-26T09:52:59.023Z,9.93
2024-02-26T09:55:30.821Z,6.80
2024-02-26T09:58:02.664Z,7.30
2024-02-26T10:00:35.264Z,10.20
2024-02-26T10:03:07.969Z,6.50
2024-02-26T10:05:41.146Z,12.80
2024-02-26T10:08:13.142Z,8.10
2024-02-26T10:10:44.879Z,5.90
2024-02-26T10:13:17.008Z,8.03
2024-02-26T10:15:48.741Z,11.00
2024-02-26T10:18:20.751Z,5.53
2024-02-26T10:21:03.453Z,8.60
2024-02-26T10:23:35.211Z,7.27
2024-02-26T10:26:06.908Z,8.90
2024-02-26T10:28:39.051Z,8.80
2024-02-26T10:31:11.091Z,7.30
2024-02-26T10:33:44.299Z,5.40
2024-02-26T10:36:17.762Z,9.50
2024-02-26T10:38:49.630Z,8.40
2024-02-26T10:41:21.510Z,8.07
2024-02-26T10:43:53.267Z,7.80
2024-02-26T10:46:26.061Z,9.00
2024-02-26T10:48:58.035Z,9.17
2024-02-26T10:51:31.794Z,9.27
2024-02-26T10:54:03.712Z,6.77
2024-02-26T10:56:35.729Z,7.93
2024-02-26T10:59:07.697Z,9.03
2024-02-26T11:01:39.589Z,7.83
2024-02-26T11:04:11.368Z,6.37
2024-02-26T11:06:44.694Z,9.70
2024-02-26T11:09:16.650Z,8.53
2024-02-26T11:11:49.703Z,8.37
2024-02-26T11:14:21.532Z,6.60
2024-02-26T11:16:53.234Z,8.73
2024-02-26T11:19:25.367Z,4.70
2024-02-26T11:22:01.711Z,6.43
2024-02-26T11:24:35.414Z,6.87
2024-02-26T11:27:07.155Z,8.13
2024-02-26T11:29:41.356Z,7.83
2024-02-26T11:32:13.080Z,6.40
2024-02-26T11:34:44.817Z,7.00
2024-02-26T11:37:18.250Z,9.23
2024-02-26T11:39:49.965Z,9.97
2024-02-26T11:42:24.483Z,6.13
2024-02-26T11:44:56.211Z,7.57
2024-02-26T11:47:28.452Z,6.07
2024-02-26T11:50:00.285Z,7.27
2024-02-26T11:52:33.500Z,6.27
2024-02-26T11:55:06.195Z,6.67
2024-02-26T11:57:39.977Z,5.73
2024-02-26T12:00:12.824Z,9.03
2024-02-26T12:02:48.459Z,10.33
2024-02-26T12:05:22.020Z,4.87
2024-02-26T12:07:55.946Z,7.10
2024-02-26T12:10:28.326Z,6.97
2024-02-26T12:13:00.538Z,7.77
2024-02-26T12:15:32.854Z,7.87
2024-02-26T12:18:06.181Z,7.13
2024-02-26T12:20:38.360Z,7.00
2024-02-26T12:23:15.248Z,8.67
2024-02-26T12:25:46.936Z,11.47
2024-02-26T12:28:18.655Z,7.47
2024-02-26T12:30:50.752Z,6.50
2024-02-26T12:33:22.785Z,6.77
2024-02-26T12:35:54.582Z,9.27
2024-02-26T12:38:27.677Z,5.17
2024-02-26T12:40:59.421Z,6.27
2024-02-26T12:43:31.117Z,10.23
2024-02-26T12:46:04.387Z,5.43
2024-02-26T12:48:36.349Z,8.33
2024-02-26T12:51:08.242Z,7.70
2024-02-26T12:53:41.504Z,12.13
2024-02-26T12:56:13.228Z,5.97
2024-02-26T12:58:44.957Z,8.17
2024-02-26T13:01:17.641Z,7.53
2024-02-26T13:03:49.478Z,6.97
2024-02-26T13:06:21.460Z,6.63
2024-02-26T13:08:58.582Z,10.87
2024-02-26T13:11:30.374Z,8.30
2024-02-26T13:14:03.768Z,10.57
2024-02-26T13:16:36.566Z,7.13
2024-02-26T13:19:11.203Z,12.73
2024-02-26T13:21:42.967Z,11.20
2024-02-26T13:24:16.058Z,12.60
2024-02-26T13:26:47.807Z,6.37
2024-02-26T13:29:19.843Z,8.50
2024-02-26T13:31:55.760Z,13.13
2024-02-26T13:34:28.465Z,10.93
2024-02-26T13:37:00.336Z,7.97
2024-02-26T13:39:33.489Z,10.03
2024-02-26T13:42:05.785Z,11.90
2024-02-26T13:44:37.521Z,8.67
2024-02-26T13:47:09.257Z,9.33
2024-02-26T13:49:40.966Z,9.43
2024-02-26T13:52:12.766Z,8.00
2024-02-26T13:54:45.818Z,8.43
2024-02-26T13:57:17.578Z,8.40
2024-02-26T13:59:49.922Z,9.63
2024-02-26T14:02:21.636Z,9.87
2024-02-26T14:04:53.329Z,8.57
2024-02-26T14:07:25.197Z,10.67
2024-02-26T14:09:58.444Z,12.17
2024-02-26T14:12:30.245Z,7.73
2024-02-26T14:15:02.106Z,13.40
2024-02-26T14:17:33.855Z,10.87
2024-02-26T14:20:06.983Z,13.77
2024-02-26T14:22:38.724Z,11.00
2024-02-26T14:25:11.778Z,12.07
2024-02-26T14:27:43.458Z,8.77
2024-02-26T14:30:15.680Z,11.63
2024-02-26T14:32:47.631Z,13.90
2024-02-26T14:35:19.430Z,12.43
2024-02-26T14:37:51.152Z,15.40
2024-02-26T14:40:24.559Z,15.00
2024-02-26T14:42:56.270Z,15.50
2024-02-26T14:45:27.990Z,14.37
2024-02-26T14:47:59.809Z,10.73
2024-02-26T14:50:31.531Z,16.43
2024-02-26T14:53:03.257Z,17.47
2024-02-26T14:55:37.372Z,14.17
2024-02-26T14:58:10.578Z,18.93
2024-02-26T15:00:42.308Z,15.50
2024-02-26T15:03:14.169Z,17.33
2024-02-26T15:05:45.890Z,12.37
2024-02-26T15:08:17.591Z,17.17
2024-02-26T15:10:50.703Z,18.23
2024-02-26T15:13:22.443Z,15.10
2024-02-26T15:15:54.146Z,19.83
2024-02-26T15:18:26.014Z,14.97
2024-02-26T15:20:57.809Z,18.27
2024-02-26T15:23:29.531Z,18.03
2024-02-26T15:26:02.685Z,16.07
2024-02-26T15:28:34.426Z,18.50
2024-02-26T15:31:06.129Z,19.07
2024-02-26T15:33:37.981Z,20.13
2024-02-26T15:36:10.008Z,20.67
2024-02-26T15:38:41.718Z,20.90
2024-02-26T15:41:15.000Z,23.27
2024-02-26T15:43:46.786Z,36.57
2024-02-26T15:46:18.546Z,23.33
2024-02-26T15:48:50.394Z,16.67
2024-02-26T15:51:22.754Z,25.37
2024-02-26T15:53:54.778Z,23.97
2024-02-26T15:56:28.076Z,26.33
2024-02-26T15:58:59.791Z,56.67
2024-02-26T16:01:32.496Z,31.40
2024-02-26T16:04:04.791Z,29.10
2024-02-26T16:06:38.838Z,40.23
2024-02-26T16:09:10.711Z,30.97
2024-02-26T16:11:43.816Z,27.73
2024-02-26T16:14:21.027Z,28.20
2024-02-26T16:16:55.680Z,24.47
2024-02-26T16:19:27.470Z,31.33
2024-02-26T16:21:59.253Z,33.10
2024-02-26T16:24:31.061Z,36.83
2024-02-26T16:27:04.542Z,43.97
2024-02-26T16:29:37.039Z,39.47
2024-02-26T16:32:08.736Z,46.57
2024-02-26T16:34:40.580Z,44.37
2024-02-26T16:37:12.897Z,32.07
2024-02-26T16:39:44.642Z,43.87
2024-02-26T16:42:17.726Z,37.07
2024-02-26T16:44:49.503Z,37.43
2024-02-26T16:47:21.240Z,34.83
2024-02-26T16:49:52.988Z,33.43
2024-02-26T16:52:24.722Z,33.53
2024-02-26T16:54:56.510Z,31.80
2024-02-26T16:57:29.596Z,28.33
2024-02-26T17:00:02.044Z,30.33
2024-02-26T17:02:33.758Z,31.57
2024-02-26T17:05:06.065Z,34.70
2024-02-26T17:07:37.773Z,39.20
2024-02-26T17:10:09.700Z,29.30
2024-02-26T17:12:42.765Z,31.27
2024-02-26T17:15:14.640Z,34.33
2024-02-26T17:17:46.443Z,32.70
2024-02-26T17:20:18.387Z,30.57
2024-02-26T17:22:50.118Z,31.20
2024-02-26T17:25:21.812Z,27.73
2024-02-26T17:27:54.939Z,31.63
2024-02-26T17:30:26.796Z,30.30
2024-02-26T17:32:58.773Z,36.13
2024-02-26T17:35:30.543Z,31.87
2024-02-26T17:38:02.302Z,30.13
2024-02-26T17:40:34.047Z,30.43
2024-02-26T17:43:07.134Z,29.13
2024-02-26T17:45:38.862Z,29.47
2024-02-26T17:48:10.798Z,31.47
2024-02-26T17:50:42.908Z,23.77
2024-02-26T17:53:14.691Z,22.80
2024-02-26T17:55:46.580Z,27.67
2024-02-26T17:58:19.651Z,22.93
2024-02-26T18:00:51.426Z,22.70
2024-02-26T18:03:23.192Z,24.17
2024-02-26T18:05:55.027Z,21.13
2024-02-26T18:08:26.780Z,23.23
2024-02-26T18:10:58.573Z,20.27
2024-02-26T18:13:31.649Z,18.73
2024-02-26T18:16:03.603Z,15.60
2024-02-26T18:18:35.445Z,16.37
2024-02-26T18:21:07.307Z,17.77
2024-02-26T18:23:39.717Z,18.87
2024-02-26T18:26:11.467Z,14.83
2024-02-26T18:28:44.526Z,17.43
2024-02-26T18:31:16.264Z,12.60
2024-02-26T18:33:48.186Z,15.50
2024-02-26T18:36:19.961Z,13.87
2024-02-26T18:38:51.724Z,16.40
2024-02-26T18:41:23.982Z,13.97
2024-02-26T18:43:57.198Z,16.67
2024-02-26T18:46:28.990Z,13.13
2024-02-26T18:49:00.834Z,14.17
2024-02-26T18:51:32.689Z,14.13
2024-02-26T18:54:04.912Z,14.47
2024-02-26T18:56:36.746Z,12.83
2024-02-26T18:59:09.806Z,14.13
2024-02-26T19:01:41.630Z,14.13
2024-02-26T19:04:13.680Z,14.00
2024-02-26T19:06:45.641Z,18.00
2024-02-26T19:09:18.200Z,13.47
2024-02-26T19:11:50.032Z,15.33
2024-02-26T19:14:23.178Z,14.83
2024-02-26T19:16:54.872Z,12.37
2024-02-26T19:19:26.676Z,13.70
2024-02-26T19:21:58.443Z,14.63
2024-02-26T19:24:30.209Z,15.47
2024-02-26T19:27:01.972Z,12.10
2024-02-26T19:29:35.040Z,13.00
2024-02-26T19:32:07.609Z,14.23
2024-02-26T19:34:39.357Z,13.90
2024-02-26T19:37:11.417Z,12.43
2024-02-26T19:39:43.229Z,13.20
2024-02-26T19:42:14.960Z,12.40
2024-02-26T19:44:48.031Z,12.13
2024-02-26T19:47:20.118Z,15.00
2024-02-26T19:49:51.948Z,19.23
2024-02-26T19:52:23.765Z,12.40
2024-02-26T19:54:55.471Z,10.53
2024-02-26T19:57:27.270Z,8.80
2024-02-26T20:00:00.680Z,9.90
2024-02-26T20:02:32.486Z,10.50
2024-02-26T20:05:04.758Z,11.73
2024-02-26T20:07:36.486Z,8.17
2024-02-26T20:10:09.285Z,8.67
2024-02-26T20:12:41.126Z,8.43
2024-02-26T20:15:15.413Z,8.37
2024-02-26T20:17:47.241Z,9.10
2024-02-26T20:20:19.098Z,8.97
2024-02-26T20:22:51.001Z,7.40
2024-02-26T20:25:22.756Z,7.97
2024-02-26T20:27:54.530Z,8.83
2024-02-26T20:30:27.700Z,7.00
2024-02-26T20:32:59.504Z,7.50
2024-02-26T20:35:31.290Z,7.07
2024-02-26T20:38:03.134Z,7.97
2024-02-26T20:40:34.855Z,6.47
2024-02-26T20:43:06.641Z,7.37
2024-02-26T20:45:39.789Z,7.00
2024-02-26T20:48:11.734Z,10.27
2024-02-26T20:50:43.549Z,7.27
2024-02-26T20:53:15.250Z,6.93
2024-02-26T20:55:46.990Z,6.43
2024-02-26T20:58:18.768Z,7.33
2024-02-26T21:00:51.819Z,6.50
2024-02-26T21:03:23.640Z,7.53
2024-02-26T21:05:55.584Z,8.57
2024-02-26T21:08:36.553Z,5.57
2024-02-26T21:11:09.615Z,7.67
2024-02-26T21:13:41.405Z,6.33
2024-02-26T21:16:14.506Z,5.73
2024-02-26T21:18:46.402Z,6.03
2024-02-26T21:21:18.278Z,6.23
2024-02-26T21:23:50.083Z,9.33
2024-02-26T21:26:21.864Z,8.37
2024-02-26T21:28:53.642Z,6.13
2024-02-26T21:31:26.706Z,5.90
2024-02-26T21:33:58.633Z,8.30
2024-02-26T21:36:30.573Z,8.60
2024-02-26T21:39:02.451Z,7.30
2024-02-26T21:41:34.215Z,5.70
2024-02-26T21:44:05.972Z,5.23
2024-02-26T21:46:39.115Z,5.80
2024-02-26T21:49:10.996Z,5.73
2024-02-26T21:51:44.026Z,6.23
2024-02-26T21:54:15.993Z,5.60
2024-02-26T21:56:47.759Z,6.83
2024-02-26T21:59:19.567Z,6.33
2024-02-26T22:01:52.835Z,6.83
2024-02-26T22:04:24.629Z,6.10
2024-02-26T22:06:56.630Z,5.87
2024-02-26T22:09:28.501Z,6.03
2024-02-26T22:12:00.279Z,4.53
2024-02-26T22:14:32.003Z,7.27
2024-02-26T22:17:05.217Z,6.90
2024-02-26T22:19:36.991Z,6.17
2024-02-26T22:22:08.781Z,6.37
2024-02-26T22:24:40.570Z,6.97
2024-02-26T22:27:12.357Z,7.47
2024-02-26T22:29:44.159Z,7.20
2024-02-26T22:32:17.590Z,7.80
2024-02-26T22:34:49.371Z,4.93
2024-02-26T22:37:21.150Z,9.00
2024-02-26T22:39:52.915Z,6.43
2024-02-26T22:42:24.755Z,6.37
2024-02-26T22:44:56.492Z,6.40
2024-02-26T22:47:29.645Z,7.10
2024-02-26T22:50:01.468Z,6.33
2024-02-26T22:52:33.251Z,6.40
2024-02-26T22:55:05.905Z,6.93
2024-02-26T22:57:37.687Z,6.40
